sensor_id;sensor_type;location;lat;lon;timestamp;P1;durP1;ratioP1;P2;durP2;ratioP2
36747;SDS011;22716;51.556;5.080;2023-08-24T00:01:17;10.23;;;4.00;;
36747;SDS011;22716;51.556;5.080;2023-08-24T00:03:46;8.55;;;3.85;;
36747;SDS011;22716;51.556;5.080;2023-08-24T00:06:15;8.32;;;3.47;;
36747;SDS011;22716;51.556;5.080;2023-08-24T00:08:43;8.23;;;3.63;;
36747;SDS011;22716;51.556;5.080;2023-08-24T00:11:15;6.78;;;4.13;;
36747;SDS011;22716;51.556;5.080;2023-08-24T00:13:43;6.07;;;3.33;;
36747;SDS011;22716;51.556;5.080;2023-08-24T00:16:14;5.60;;;3.25;;
36747;SDS011;22716;51.556;5.080;2023-08-24T00:18:42;6.78;;;3.58;;
36747;SDS011;22716;51.556;5.080;2023-08-24T00:21:12;8.07;;;3.90;;
36747;SDS011;22716;51.556;5.080;2023-08-24T00:23:42;6.85;;;5.20;;
36747;SDS011;22716;51.556;5.080;2023-08-24T00:26:11;8.63;;;3.70;;
36747;SDS011;22716;51.556;5.080;2023-08-24T00:28:44;9.95;;;4.30;;
36747;SDS011;22716;51.556;5.080;2023-08-24T00:31:14;6.13;;;4.05;;
36747;SDS011;22716;51.556;5.080;2023-08-24T00:33:43;7.40;;;3.88;;
36747;SDS011;22716;51.556;5.080;2023-08-24T00:36:11;8.73;;;4.25;;
36747;SDS011;22716;51.556;5.080;2023-08-24T00:38:40;9.27;;;3.85;;
36747;SDS011;22716;51.556;5.080;2023-08-24T00:41:08;6.90;;;3.45;;
36747;SDS011;22716;51.556;5.080;2023-08-24T00:43:37;4.95;;;3.72;;
36747;SDS011;22716;51.556;5.080;2023-08-24T00:46:08;6.90;;;3.30;;
36747;SDS011;22716;51.556;5.080;2023-08-24T00:48:37;11.45;;;4.10;;
36747;SDS011;22716;51.556;5.080;2023-08-24T00:51:06;7.03;;;3.70;;
36747;SDS011;22716;51.556;5.080;2023-08-24T00:53:34;5.90;;;4.07;;
36747;SDS011;22716;51.556;5.080;2023-08-24T00:56:04;8.15;;;4.65;;
36747;SDS011;22716;51.556;5.080;2023-08-24T00:58:33;7.50;;;3.97;;
36747;SDS011;22716;51.556;5.080;2023-08-24T01:01:02;8.07;;;3.92;;
36747;SDS011;22716;51.556;5.080;2023-08-24T01:03:34;7.82;;;4.30;;
36747;SDS011;22716;51.556;5.080;2023-08-24T01:06:02;10.10;;;4.05;;
36747;SDS011;22716;51.556;5.080;2023-08-24T01:08:31;10.55;;;5.00;;
36747;SDS011;22716;51.556;5.080;2023-08-24T01:11:08;6.45;;;3.80;;
36747;SDS011;22716;51.556;5.080;2023-08-24T01:13:45;9.13;;;5.75;;
36747;SDS011;22716;51.556;5.080;2023-08-24T01:16:18;9.05;;;4.75;;
36747;SDS011;22716;51.556;5.080;2023-08-24T01:18:54;6.95;;;3.83;;
36747;SDS011;22716;51.556;5.080;2023-08-24T01:21:24;9.07;;;4.05;;
36747;SDS011;22716;51.556;5.080;2023-08-24T01:23:55;7.60;;;4.43;;
36747;SDS011;22716;51.556;5.080;2023-08-24T01:26:34;12.13;;;4.28;;
36747;SDS011;22716;51.556;5.080;2023-08-24T01:29:03;9.30;;;4.07;;
36747;SDS011;22716;51.556;5.080;2023-08-24T01:31:32;7.85;;;4.43;;
36747;SDS011;22716;51.556;5.080;2023-08-24T01:34:01;5.38;;;3.95;;
36747;SDS011;22716;51.556;5.080;2023-08-24T01:36:29;7.43;;;5.47;;
36747;SDS011;22716;51.556;5.080;2023-08-24T01:38:59;9.93;;;4.80;;
36747;SDS011;22716;51.556;5.080;2023-08-24T01:41:37;8.35;;;5.15;;
36747;SDS011;22716;51.556;5.080;2023-08-24T01:44:08;9.70;;;4.93;;
36747;SDS011;22716;51.556;5.080;2023-08-24T01:46:40;9.00;;;4.28;;
36747;SDS011;22716;51.556;5.080;2023-08-24T01:49:11;15.98;;;5.00;;
36747;SDS011;22716;51.556;5.080;2023-08-24T01:51:41;8.65;;;4.53;;
36747;SDS011;22716;51.556;5.080;2023-08-24T01:54:11;9.00;;;4.68;;
36747;SDS011;22716;51.556;5.080;2023-08-24T01:56:42;9.90;;;5.43;;
36747;SDS011;22716;51.556;5.080;2023-08-24T01:59:11;7.82;;;4.07;;
36747;SDS011;22716;51.556;5.080;2023-08-24T02:01:39;4.57;;;4.13;;
36747;SDS011;22716;51.556;5.080;2023-08-24T02:04:08;7.13;;;4.70;;
36747;SDS011;22716;51.556;5.080;2023-08-24T02:06:36;8.15;;;4.93;;
36747;SDS011;22716;51.556;5.080;2023-08-24T02:09:04;7.95;;;4.95;;
36747;SDS011;22716;51.556;5.080;2023-08-24T02:11:33;10.55;;;5.07;;
36747;SDS011;22716;51.556;5.080;2023-08-24T02:14:03;8.75;;;5.10;;
36747;SDS011;22716;51.556;5.080;2023-08-24T02:16:32;6.85;;;4.50;;
36747;SDS011;22716;51.556;5.080;2023-08-24T02:19:00;6.85;;;4.75;;
36747;SDS011;22716;51.556;5.080;2023-08-24T02:21:29;7.57;;;5.05;;
36747;SDS011;22716;51.556;5.080;2023-08-24T02:23:57;7.80;;;4.43;;
36747;SDS011;22716;51.556;5.080;2023-08-24T02:26:26;9.15;;;5.63;;
36747;SDS011;22716;51.556;5.080;2023-08-24T02:28:54;6.28;;;4.88;;
36747;SDS011;22716;51.556;5.080;2023-08-24T02:31:25;11.38;;;4.63;;
36747;SDS011;22716;51.556;5.080;2023-08-24T02:33:53;6.28;;;4.80;;
36747;SDS011;22716;51.556;5.080;2023-08-24T02:36:22;13.43;;;5.75;;
36747;SDS011;22716;51.556;5.080;2023-08-24T02:38:50;5.97;;;4.40;;
36747;SDS011;22716;51.556;5.080;2023-08-24T02:41:18;9.35;;;5.57;;
36747;SDS011;22716;51.556;5.080;2023-08-24T02:43:47;6.65;;;5.18;;
36747;SDS011;22716;51.556;5.080;2023-08-24T02:46:15;7.95;;;5.13;;
36747;SDS011;22716;51.556;5.080;2023-08-24T02:48:46;8.73;;;5.75;;
36747;SDS011;22716;51.556;5.080;2023-08-24T02:51:14;12.50;;;5.78;;
36747;SDS011;22716;51.556;5.080;2023-08-24T02:53:43;8.10;;;5.47;;
36747;SDS011;22716;51.556;5.080;2023-08-24T02:56:11;10.88;;;5.80;;
36747;SDS011;22716;51.556;5.080;2023-08-24T02:58:39;9.05;;;5.72;;
36747;SDS011;22716;51.556;5.080;2023-08-24T03:01:08;13.48;;;6.65;;
36747;SDS011;22716;51.556;5.080;2023-08-24T03:03:36;11.38;;;7.03;;
36747;SDS011;22716;51.556;5.080;2023-08-24T03:06:08;13.20;;;7.15;;
36747;SDS011;22716;51.556;5.080;2023-08-24T03:08:36;10.38;;;7.15;;
36747;SDS011;22716;51.556;5.080;2023-08-24T03:11:04;11.02;;;7.35;;
36747;SDS011;22716;51.556;5.080;2023-08-24T03:13:35;12.23;;;6.85;;
36747;SDS011;22716;51.556;5.080;2023-08-24T03:16:04;10.07;;;7.75;;
36747;SDS011;22716;51.556;5.080;2023-08-24T03:18:33;13.95;;;7.97;;
36747;SDS011;22716;51.556;5.080;2023-08-24T03:21:01;10.68;;;6.90;;
36747;SDS011;22716;51.556;5.080;2023-08-24T03:23:32;11.50;;;7.68;;
36747;SDS011;22716;51.556;5.080;2023-08-24T03:26:01;9.77;;;7.50;;
36747;SDS011;22716;51.556;5.080;2023-08-24T03:28:29;11.43;;;7.75;;
36747;SDS011;22716;51.556;5.080;2023-08-24T03:30:58;11.82;;;6.55;;
36747;SDS011;22716;51.556;5.080;2023-08-24T03:33:26;13.50;;;7.07;;
36747;SDS011;22716;51.556;5.080;2023-08-24T03:35:55;11.48;;;8.05;;
36747;SDS011;22716;51.556;5.080;2023-08-24T03:38:24;13.55;;;8.05;;
36747;SDS011;22716;51.556;5.080;2023-08-24T03:41:01;8.75;;;6.10;;
36747;SDS011;22716;51.556;5.080;2023-08-24T03:43:31;15.52;;;8.32;;
36747;SDS011;22716;51.556;5.080;2023-08-24T03:46:00;10.68;;;7.18;;
36747;SDS011;22716;51.556;5.080;2023-08-24T03:48:29;15.80;;;8.27;;
36747;SDS011;22716;51.556;5.080;2023-08-24T03:50:57;10.43;;;7.85;;
36747;SDS011;22716;51.556;5.080;2023-08-24T03:53:26;11.38;;;6.65;;
36747;SDS011;22716;51.556;5.080;2023-08-24T03:55:54;16.92;;;8.25;;
36747;SDS011;22716;51.556;5.080;2023-08-24T03:58:25;15.32;;;8.10;;
36747;SDS011;22716;51.556;5.080;2023-08-24T04:00:54;16.17;;;9.50;;
36747;SDS011;22716;51.556;5.080;2023-08-24T04:03:22;14.25;;;8.80;;
36747;SDS011;22716;51.556;5.080;2023-08-24T04:05:50;14.15;;;8.57;;
36747;SDS011;22716;51.556;5.080;2023-08-24T04:08:19;8.52;;;6.95;;
36747;SDS011;22716;51.556;5.080;2023-08-24T04:10:47;13.88;;;8.52;;
36747;SDS011;22716;51.556;5.080;2023-08-24T04:13:15;12.75;;;8.32;;
36747;SDS011;22716;51.556;5.080;2023-08-24T04:15:46;11.25;;;8.43;;
36747;SDS011;22716;51.556;5.080;2023-08-24T04:18:14;17.65;;;9.13;;
36747;SDS011;22716;51.556;5.080;2023-08-24T04:20:43;18.25;;;8.52;;
36747;SDS011;22716;51.556;5.080;2023-08-24T04:23:12;15.70;;;9.10;;
36747;SDS011;22716;51.556;5.080;2023-08-24T04:25:41;11.23;;;9.15;;
36747;SDS011;22716;51.556;5.080;2023-08-24T04:28:09;14.32;;;9.73;;
36747;SDS011;22716;51.556;5.080;2023-08-24T04:30:38;12.13;;;9.00;;
36747;SDS011;22716;51.556;5.080;2023-08-24T04:33:09;14.30;;;10.00;;
36747;SDS011;22716;51.556;5.080;2023-08-24T04:35:37;14.88;;;9.60;;
36747;SDS011;22716;51.556;5.080;2023-08-24T04:38:05;16.83;;;10.40;;
36747;SDS011;22716;51.556;5.080;2023-08-24T04:40:45;14.77;;;9.75;;
36747;SDS011;22716;51.556;5.080;2023-08-24T04:43:14;11.30;;;9.13;;
36747;SDS011;22716;51.556;5.080;2023-08-24T04:45:42;16.35;;;8.88;;
36747;SDS011;22716;51.556;5.080;2023-08-24T04:48:13;11.38;;;8.25;;
36747;SDS011;22716;51.556;5.080;2023-08-24T04:50:43;13.85;;;9.63;;
36747;SDS011;22716;51.556;5.080;2023-08-24T04:53:12;15.40;;;9.35;;
36747;SDS011;22716;51.556;5.080;2023-08-24T04:55:42;10.23;;;9.02;;
36747;SDS011;22716;51.556;5.080;2023-08-24T04:58:11;14.32;;;10.80;;
36747;SDS011;22716;51.556;5.080;2023-08-24T05:00:40;12.85;;;8.93;;
36747;SDS011;22716;51.556;5.080;2023-08-24T05:03:09;13.10;;;9.45;;
36747;SDS011;22716;51.556;5.080;2023-08-24T05:05:41;14.30;;;10.05;;
36747;SDS011;22716;51.556;5.080;2023-08-24T05:08:09;27.35;;;10.50;;
36747;SDS011;22716;51.556;5.080;2023-08-24T05:10:37;21.60;;;10.98;;
36747;SDS011;22716;51.556;5.080;2023-08-24T05:13:06;14.77;;;9.93;;
36747;SDS011;22716;51.556;5.080;2023-08-24T05:15:34;15.98;;;10.68;;
36747;SDS011;22716;51.556;5.080;2023-08-24T05:18:03;16.25;;;11.75;;
36747;SDS011;22716;51.556;5.080;2023-08-24T05:20:32;15.05;;;11.80;;
36747;SDS011;22716;51.556;5.080;2023-08-24T05:23:03;20.55;;;12.13;;
36747;SDS011;22716;51.556;5.080;2023-08-24T05:25:31;16.40;;;12.25;;
36747;SDS011;22716;51.556;5.080;2023-08-24T05:27:59;15.23;;;9.82;;
36747;SDS011;22716;51.556;5.080;2023-08-24T05:30:28;18.48;;;10.00;;
36747;SDS011;22716;51.556;5.080;2023-08-24T05:32:56;18.08;;;10.63;;
36747;SDS011;22716;51.556;5.080;2023-08-24T05:35:24;17.80;;;10.93;;
36747;SDS011;22716;51.556;5.080;2023-08-24T05:37:53;18.77;;;10.40;;
36747;SDS011;22716;51.556;5.080;2023-08-24T05:40:24;14.10;;;8.85;;
36747;SDS011;22716;51.556;5.080;2023-08-24T05:42:53;16.35;;;11.48;;
36747;SDS011;22716;51.556;5.080;2023-08-24T05:45:21;18.23;;;12.38;;
36747;SDS011;22716;51.556;5.080;2023-08-24T05:47:49;16.00;;;10.90;;
36747;SDS011;22716;51.556;5.080;2023-08-24T05:50:18;15.98;;;11.30;;
36747;SDS011;22716;51.556;5.080;2023-08-24T05:52:46;13.15;;;11.70;;
36747;SDS011;22716;51.556;5.080;2023-08-24T05:55:15;18.25;;;10.98;;
36747;SDS011;22716;51.556;5.080;2023-08-24T05:57:46;17.83;;;11.68;;
36747;SDS011;22716;51.556;5.080;2023-08-24T06:00:14;16.35;;;12.38;;
36747;SDS011;22716;51.556;5.080;2023-08-24T06:02:43;19.15;;;11.10;;
36747;SDS011;22716;51.556;5.080;2023-08-24T06:05:12;15.48;;;11.98;;
36747;SDS011;22716;51.556;5.080;2023-08-24T06:07:42;20.27;;;12.65;;
36747;SDS011;22716;51.556;5.080;2023-08-24T06:10:11;17.42;;;12.15;;
36747;SDS011;22716;51.556;5.080;2023-08-24T06:12:39;15.45;;;10.40;;
36747;SDS011;22716;51.556;5.080;2023-08-24T06:15:10;15.02;;;11.43;;
36747;SDS011;22716;51.556;5.080;2023-08-24T06:17:39;16.75;;;10.90;;
36747;SDS011;22716;51.556;5.080;2023-08-24T06:20:08;21.67;;;11.95;;
36747;SDS011;22716;51.556;5.080;2023-08-24T06:22:37;19.88;;;12.88;;
36747;SDS011;22716;51.556;5.080;2023-08-24T06:25:06;23.00;;;13.07;;
36747;SDS011;22716;51.556;5.080;2023-08-24T06:27:35;22.38;;;12.60;;
36747;SDS011;22716;51.556;5.080;2023-08-24T06:30:04;14.65;;;11.77;;
36747;SDS011;22716;51.556;5.080;2023-08-24T06:32:36;15.98;;;11.65;;
36747;SDS011;22716;51.556;5.080;2023-08-24T06:35:04;20.23;;;11.93;;
36747;SDS011;22716;51.556;5.080;2023-08-24T06:37:33;20.15;;;13.23;;
36747;SDS011;22716;51.556;5.080;2023-08-24T06:40:02;13.50;;;10.25;;
36747;SDS011;22716;51.556;5.080;2023-08-24T06:42:32;21.15;;;11.02;;
36747;SDS011;22716;51.556;5.080;2023-08-24T06:45:00;21.10;;;12.93;;
36747;SDS011;22716;51.556;5.080;2023-08-24T06:47:28;14.27;;;10.40;;
36747;SDS011;22716;51.556;5.080;2023-08-24T06:49:59;14.98;;;10.30;;
36747;SDS011;22716;51.556;5.080;2023-08-24T06:52:28;15.50;;;11.65;;
36747;SDS011;22716;51.556;5.080;2023-08-24T06:54:56;15.00;;;11.50;;
36747;SDS011;22716;51.556;5.080;2023-08-24T06:57:24;15.52;;;10.68;;
36747;SDS011;22716;51.556;5.080;2023-08-24T06:59:53;15.75;;;11.27;;
36747;SDS011;22716;51.556;5.080;2023-08-24T07:02:21;15.07;;;11.30;;
36747;SDS011;22716;51.556;5.080;2023-08-24T07:04:49;13.70;;;10.98;;
36747;SDS011;22716;51.556;5.080;2023-08-24T07:07:20;15.98;;;11.15;;
36747;SDS011;22716;51.556;5.080;2023-08-24T07:09:49;12.35;;;10.30;;
36747;SDS011;22716;51.556;5.080;2023-08-24T07:12:18;16.00;;;10.02;;
36747;SDS011;22716;51.556;5.080;2023-08-24T07:14:46;13.45;;;9.63;;
36747;SDS011;22716;51.556;5.080;2023-08-24T07:17:14;17.30;;;9.98;;
36747;SDS011;22716;51.556;5.080;2023-08-24T07:19:43;15.48;;;10.88;;
36747;SDS011;22716;51.556;5.080;2023-08-24T07:22:12;14.02;;;11.32;;
36747;SDS011;22716;51.556;5.080;2023-08-24T07:24:43;13.27;;;9.43;;
36747;SDS011;22716;51.556;5.080;2023-08-24T07:27:11;15.43;;;9.80;;
36747;SDS011;22716;51.556;5.080;2023-08-24T07:29:39;17.30;;;10.88;;
36747;SDS011;22716;51.556;5.080;2023-08-24T07:32:08;14.20;;;10.30;;
36747;SDS011;22716;51.556;5.080;2023-08-24T07:34:36;11.73;;;9.73;;
36747;SDS011;22716;51.556;5.080;2023-08-24T07:37:04;12.18;;;8.65;;
36747;SDS011;22716;51.556;5.080;2023-08-24T07:39:33;15.40;;;9.45;;
36747;SDS011;22716;51.556;5.080;2023-08-24T07:42:04;19.55;;;10.82;;
36747;SDS011;22716;51.556;5.080;2023-08-24T07:44:32;13.77;;;10.43;;
36747;SDS011;22716;51.556;5.080;2023-08-24T07:47:56;15.60;;;10.17;;
36747;SDS011;22716;51.556;5.080;2023-08-24T07:50:25;13.37;;;9.03;;
36747;SDS011;22716;51.556;5.080;2023-08-24T07:52:53;13.77;;;10.83;;
36747;SDS011;22716;51.556;5.080;2023-08-24T07:55:22;14.95;;;9.85;;
36747;SDS011;22716;51.556;5.080;2023-08-24T07:57:51;13.80;;;10.70;;
36747;SDS011;22716;51.556;5.080;2023-08-24T08:00:19;11.73;;;9.40;;
36747;SDS011;22716;51.556;5.080;2023-08-24T08:02:49;13.55;;;10.00;;
36747;SDS011;22716;51.556;5.080;2023-08-24T08:05:21;13.97;;;9.53;;
36747;SDS011;22716;51.556;5.080;2023-08-24T08:07:50;16.10;;;11.50;;
36747;SDS011;22716;51.556;5.080;2023-08-24T08:10:19;13.55;;;9.52;;
36747;SDS011;22716;51.556;5.080;2023-08-24T08:12:48;14.60;;;10.17;;
36747;SDS011;22716;51.556;5.080;2023-08-24T08:15:17;16.23;;;10.87;;
36747;SDS011;22716;51.556;5.080;2023-08-24T08:17:46;15.55;;;10.63;;
36747;SDS011;22716;51.556;5.080;2023-08-24T08:20:14;14.37;;;10.30;;
36747;SDS011;22716;51.556;5.080;2023-08-24T08:22:46;12.60;;;9.90;;
36747;SDS011;22716;51.556;5.080;2023-08-24T08:25:15;17.77;;;9.90;;
36747;SDS011;22716;51.556;5.080;2023-08-24T08:27:47;20.27;;;11.57;;
36747;SDS011;22716;51.556;5.080;2023-08-24T08:30:16;11.85;;;8.73;;
36747;SDS011;22716;51.556;5.080;2023-08-24T08:32:45;12.90;;;10.07;;
36747;SDS011;22716;51.556;5.080;2023-08-24T08:35:14;15.00;;;10.68;;
36747;SDS011;22716;51.556;5.080;2023-08-24T08:37:42;16.95;;;10.63;;
36747;SDS011;22716;51.556;5.080;2023-08-24T08:40:14;16.13;;;10.05;;
36747;SDS011;22716;51.556;5.080;2023-08-24T08:42:42;14.88;;;9.65;;
36747;SDS011;22716;51.556;5.080;2023-08-24T08:45:11;13.95;;;8.27;;
36747;SDS011;22716;51.556;5.080;2023-08-24T08:47:40;12.25;;;9.27;;
36747;SDS011;22716;51.556;5.080;2023-08-24T08:50:09;14.75;;;9.48;;
36747;SDS011;22716;51.556;5.080;2023-08-24T08:52:38;14.60;;;9.70;;
36747;SDS011;22716;51.556;5.080;2023-08-24T08:55:07;11.88;;;9.27;;
36747;SDS011;22716;51.556;5.080;2023-08-24T08:57:39;13.80;;;9.82;;
36747;SDS011;22716;51.556;5.080;2023-08-24T09:00:09;12.05;;;8.73;;
36747;SDS011;22716;51.556;5.080;2023-08-24T09:02:39;14.88;;;9.20;;
36747;SDS011;22716;51.556;5.080;2023-08-24T09:05:12;15.70;;;9.20;;
36747;SDS011;22716;51.556;5.080;2023-08-24T09:07:40;12.60;;;9.68;;
36747;SDS011;22716;51.556;5.080;2023-08-24T09:10:09;12.63;;;9.15;;
36747;SDS011;22716;51.556;5.080;2023-08-24T09:12:41;15.00;;;10.38;;
36747;SDS011;22716;51.556;5.080;2023-08-24T09:15:10;14.27;;;9.17;;
36747;SDS011;22716;51.556;5.080;2023-08-24T09:17:41;14.70;;;8.13;;
36747;SDS011;22716;51.556;5.080;2023-08-24T09:20:11;14.07;;;8.50;;
36747;SDS011;22716;51.556;5.080;2023-08-24T09:22:40;10.93;;;8.52;;
36747;SDS011;22716;51.556;5.080;2023-08-24T09:25:09;16.58;;;9.23;;
36747;SDS011;22716;51.556;5.080;2023-08-24T09:27:41;12.40;;;8.85;;
36747;SDS011;22716;51.556;5.080;2023-08-24T09:30:10;17.07;;;9.87;;
36747;SDS011;22716;51.556;5.080;2023-08-24T09:32:40;12.57;;;8.02;;
36747;SDS011;22716;51.556;5.080;2023-08-24T09:35:10;14.93;;;9.27;;
36747;SDS011;22716;51.556;5.080;2023-08-24T09:37:39;17.15;;;8.95;;
36747;SDS011;22716;51.556;5.080;2023-08-24T09:40:11;16.65;;;8.10;;
36747;SDS011;22716;51.556;5.080;2023-08-24T09:42:42;10.93;;;7.72;;
36747;SDS011;22716;51.556;5.080;2023-08-24T09:45:12;10.80;;;8.27;;
36747;SDS011;22716;51.556;5.080;2023-08-24T09:47:44;11.48;;;8.02;;
36747;SDS011;22716;51.556;5.080;2023-08-24T09:50:14;13.30;;;8.13;;
36747;SDS011;22716;51.556;5.080;2023-08-24T09:52:43;12.88;;;7.93;;
36747;SDS011;22716;51.556;5.080;2023-08-24T09:55:17;16.38;;;8.43;;
36747;SDS011;22716;51.556;5.080;2023-08-24T09:57:53;10.88;;;8.15;;
36747;SDS011;22716;51.556;5.080;2023-08-24T10:00:25;11.63;;;8.80;;
36747;SDS011;22716;51.556;5.080;2023-08-24T10:02:55;13.13;;;8.00;;
36747;SDS011;22716;51.556;5.080;2023-08-24T10:05:25;11.50;;;8.13;;
36747;SDS011;22716;51.556;5.080;2023-08-24T10:07:55;13.33;;;7.20;;
36747;SDS011;22716;51.556;5.080;2023-08-24T10:10:27;13.40;;;7.50;;
36747;SDS011;22716;51.556;5.080;2023-08-24T10:13:03;12.52;;;8.40;;
36747;SDS011;22716;51.556;5.080;2023-08-24T10:15:36;11.30;;;7.35;;
36747;SDS011;22716;51.556;5.080;2023-08-24T10:18:11;13.25;;;8.95;;
36747;SDS011;22716;51.556;5.080;2023-08-24T10:20:41;12.00;;;8.07;;
36747;SDS011;22716;51.556;5.080;2023-08-24T10:23:11;15.95;;;9.80;;
36747;SDS011;22716;51.556;5.080;2023-08-24T10:25:42;17.63;;;10.30;;
36747;SDS011;22716;51.556;5.080;2023-08-24T10:28:17;15.85;;;10.73;;
36747;SDS011;22716;51.556;5.080;2023-08-24T10:30:48;17.45;;;11.55;;
36747;SDS011;22716;51.556;5.080;2023-08-24T10:33:17;19.13;;;10.82;;
36747;SDS011;22716;51.556;5.080;2023-08-24T10:35:47;17.95;;;10.88;;
36747;SDS011;22716;51.556;5.080;2023-08-24T10:38:23;14.68;;;10.98;;
36747;SDS011;22716;51.556;5.080;2023-08-24T10:40:53;17.10;;;10.33;;
36747;SDS011;22716;51.556;5.080;2023-08-24T10:43:25;25.30;;;12.15;;
36747;SDS011;22716;51.556;5.080;2023-08-24T10:45:53;12.73;;;10.38;;
36747;SDS011;22716;51.556;5.080;2023-08-24T10:48:24;19.67;;;10.57;;
36747;SDS011;22716;51.556;5.080;2023-08-24T10:53:51;14.23;;;9.25;;
36747;SDS011;22716;51.556;5.080;2023-08-24T10:56:24;15.88;;;9.68;;
36747;SDS011;22716;51.556;5.080;2023-08-24T10:59:14;13.98;;;9.95;;
36747;SDS011;22716;51.556;5.080;2023-08-24T11:01:54;13.95;;;9.82;;
36747;SDS011;22716;51.556;5.080;2023-08-24T11:04:24;14.25;;;10.15;;
36747;SDS011;22716;51.556;5.080;2023-08-24T11:06:53;19.05;;;10.10;;
36747;SDS011;22716;51.556;5.080;2023-08-24T11:09:24;15.95;;;9.77;;
36747;SDS011;22716;51.556;5.080;2023-08-24T11:11:57;16.15;;;9.70;;
36747;SDS011;22716;51.556;5.080;2023-08-24T11:14:31;17.30;;;10.55;;
36747;SDS011;22716;51.556;5.080;2023-08-24T11:16:59;13.10;;;8.85;;
36747;SDS011;22716;51.556;5.080;2023-08-24T11:19:29;14.95;;;9.35;;
36747;SDS011;22716;51.556;5.080;2023-08-24T11:21:58;13.90;;;8.37;;
36747;SDS011;22716;51.556;5.080;2023-08-24T11:24:28;15.73;;;8.27;;
36747;SDS011;22716;51.556;5.080;2023-08-24T11:26:58;15.73;;;8.03;;
36747;SDS011;22716;51.556;5.080;2023-08-24T11:29:31;13.18;;;8.35;;
36747;SDS011;22716;51.556;5.080;2023-08-24T11:31:59;14.97;;;7.97;;
36747;SDS011;22716;51.556;5.080;2023-08-24T11:34:28;11.82;;;8.55;;
36747;SDS011;22716;51.556;5.080;2023-08-24T11:36:56;12.73;;;9.70;;
36747;SDS011;22716;51.556;5.080;2023-08-24T11:39:26;18.77;;;9.00;;
36747;SDS011;22716;51.556;5.080;2023-08-24T11:41:57;14.55;;;8.57;;
36747;SDS011;22716;51.556;5.080;2023-08-24T11:44:26;13.30;;;7.80;;
36747;SDS011;22716;51.556;5.080;2023-08-24T11:46:58;11.63;;;8.57;;
36747;SDS011;22716;51.556;5.080;2023-08-24T11:49:27;16.45;;;7.65;;
36747;SDS011;22716;51.556;5.080;2023-08-24T11:51:56;12.88;;;7.80;;
36747;SDS011;22716;51.556;5.080;2023-08-24T11:54:25;14.02;;;8.25;;
36747;SDS011;22716;51.556;5.080;2023-08-24T11:56:53;12.43;;;9.30;;
36747;SDS011;22716;51.556;5.080;2023-08-24T11:59:22;9.57;;;7.72;;
36747;SDS011;22716;51.556;5.080;2023-08-24T12:01:51;11.65;;;7.15;;
36747;SDS011;22716;51.556;5.080;2023-08-24T12:04:23;13.93;;;7.50;;
36747;SDS011;22716;51.556;5.080;2023-08-24T12:06:52;14.07;;;7.18;;
36747;SDS011;22716;51.556;5.080;2023-08-24T12:09:21;10.68;;;7.47;;
36747;SDS011;22716;51.556;5.080;2023-08-24T12:11:49;10.02;;;7.68;;
36747;SDS011;22716;51.556;5.080;2023-08-24T12:14:23;12.50;;;8.20;;
36747;SDS011;22716;51.556;5.080;2023-08-24T12:16:52;10.45;;;7.80;;
36747;SDS011;22716;51.556;5.080;2023-08-24T12:19:23;10.90;;;7.50;;
36747;SDS011;22716;51.556;5.080;2023-08-24T12:21:52;12.73;;;7.57;;
36747;SDS011;22716;51.556;5.080;2023-08-24T12:24:20;15.18;;;7.03;;
36747;SDS011;22716;51.556;5.080;2023-08-24T12:26:55;12.52;;;7.40;;
36747;SDS011;22716;51.556;5.080;2023-08-24T12:29:26;9.77;;;6.93;;
36747;SDS011;22716;51.556;5.080;2023-08-24T12:31:56;16.95;;;8.02;;
36747;SDS011;22716;51.556;5.080;2023-08-24T12:34:28;13.50;;;7.55;;
36747;SDS011;22716;51.556;5.080;2023-08-24T12:36:57;11.98;;;6.05;;
36747;SDS011;22716;51.556;5.080;2023-08-24T12:39:26;9.82;;;6.68;;
36747;SDS011;22716;51.556;5.080;2023-08-24T12:41:54;9.93;;;6.40;;
36747;SDS011;22716;51.556;5.080;2023-08-24T12:44:23;9.60;;;6.28;;
36747;SDS011;22716;51.556;5.080;2023-08-24T12:46:51;9.55;;;6.18;;
36747;SDS011;22716;51.556;5.080;2023-08-24T12:49:20;18.40;;;7.43;;
36747;SDS011;22716;51.556;5.080;2023-08-24T12:51:51;11.82;;;5.57;;
36747;SDS011;22716;51.556;5.080;2023-08-24T12:54:19;14.10;;;6.38;;
36747;SDS011;22716;51.556;5.080;2023-08-24T12:56:50;9.52;;;5.38;;
36747;SDS011;22716;51.556;5.080;2023-08-24T12:59:18;7.45;;;5.25;;
36747;SDS011;22716;51.556;5.080;2023-08-24T13:01:48;7.18;;;4.60;;
36747;SDS011;22716;51.556;5.080;2023-08-24T13:04:16;11.50;;;5.82;;
36747;SDS011;22716;51.556;5.080;2023-08-24T13:06:45;18.92;;;5.40;;
36747;SDS011;22716;51.556;5.080;2023-08-24T13:09:16;8.88;;;4.60;;
36747;SDS011;22716;51.556;5.080;2023-08-24T13:11:45;6.45;;;4.50;;
36747;SDS011;22716;51.556;5.080;2023-08-24T13:14:13;11.57;;;4.20;;
36747;SDS011;22716;51.556;5.080;2023-08-24T13:16:42;6.00;;;4.03;;
36747;SDS011;22716;51.556;5.080;2023-08-24T13:19:11;7.10;;;4.53;;
36747;SDS011;22716;51.556;5.080;2023-08-24T13:21:39;6.22;;;4.50;;
36747;SDS011;22716;51.556;5.080;2023-08-24T13:24:08;7.18;;;4.38;;
36747;SDS011;22716;51.556;5.080;2023-08-24T13:26:39;10.27;;;4.20;;
36747;SDS011;22716;51.556;5.080;2023-08-24T13:29:08;7.65;;;4.43;;
36747;SDS011;22716;51.556;5.080;2023-08-24T13:31:36;5.68;;;3.40;;
36747;SDS011;22716;51.556;5.080;2023-08-24T13:34:05;6.43;;;4.20;;
36747;SDS011;22716;51.556;5.080;2023-08-24T13:36:34;6.60;;;4.88;;
36747;SDS011;22716;51.556;5.080;2023-08-24T13:39:03;10.98;;;4.45;;
36747;SDS011;22716;51.556;5.080;2023-08-24T13:41:31;10.30;;;3.92;;
36747;SDS011;22716;51.556;5.080;2023-08-24T13:44:03;10.23;;;4.00;;
36747;SDS011;22716;51.556;5.080;2023-08-24T13:46:31;18.13;;;3.88;;
36747;SDS011;22716;51.556;5.080;2023-08-24T13:49:00;8.23;;;4.35;;
36747;SDS011;22716;51.556;5.080;2023-08-24T13:51:29;9.90;;;4.10;;
36747;SDS011;22716;51.556;5.080;2023-08-24T13:53:57;5.70;;;4.07;;
36747;SDS011;22716;51.556;5.080;2023-08-24T13:56:26;6.85;;;3.80;;
36747;SDS011;22716;51.556;5.080;2023-08-24T13:58:54;8.57;;;4.38;;
36747;SDS011;22716;51.556;5.080;2023-08-24T14:01:26;5.45;;;3.28;;
36747;SDS011;22716;51.556;5.080;2023-08-24T14:03:54;5.70;;;3.45;;
36747;SDS011;22716;51.556;5.080;2023-08-24T14:06:23;7.15;;;3.47;;
36747;SDS011;22716;51.556;5.080;2023-08-24T14:08:51;17.65;;;3.28;;
36747;SDS011;22716;51.556;5.080;2023-08-24T14:11:20;7.50;;;3.13;;
36747;SDS011;22716;51.556;5.080;2023-08-24T14:13:48;12.85;;;5.00;;
36747;SDS011;22716;51.556;5.080;2023-08-24T14:16:17;8.15;;;3.10;;
36747;SDS011;22716;51.556;5.080;2023-08-24T14:18:48;9.32;;;3.40;;
36747;SDS011;22716;51.556;5.080;2023-08-24T14:21:17;6.53;;;3.60;;
36747;SDS011;22716;51.556;5.080;2023-08-24T14:23:46;6.45;;;2.60;;
36747;SDS011;22716;51.556;5.080;2023-08-24T14:26:15;4.97;;;3.03;;
36747;SDS011;22716;51.556;5.080;2023-08-24T14:28:47;6.80;;;2.85;;
36747;SDS011;22716;51.556;5.080;2023-08-24T14:31:19;5.43;;;3.05;;
36747;SDS011;22716;51.556;5.080;2023-08-24T14:33:51;6.88;;;2.83;;
36747;SDS011;22716;51.556;5.080;2023-08-24T14:36:20;4.03;;;2.40;;
36747;SDS011;22716;51.556;5.080;2023-08-24T14:38:49;8.35;;;3.15;;
36747;SDS011;22716;51.556;5.080;2023-08-24T14:41:19;6.20;;;3.17;;
36747;SDS011;22716;51.556;5.080;2023-08-24T14:43:47;6.50;;;2.85;;
36747;SDS011;22716;51.556;5.080;2023-08-24T14:46:16;6.97;;;2.65;;
36747;SDS011;22716;51.556;5.080;2023-08-24T14:48:44;6.72;;;2.97;;
36747;SDS011;22716;51.556;5.080;2023-08-24T14:51:15;5.60;;;2.87;;
36747;SDS011;22716;51.556;5.080;2023-08-24T14:53:44;9.85;;;3.22;;